Terminal Aerodrome Forecast
Issued by NWS Austin/San Antonio, TX

Current Version | Previous Version | Text Only | Print | Product List | Glossary On
Versions: 1 2 3 4 5 6 7 8 9 10 11 12 13 14 15 16 17 18 19 20 21 22 23
000
FTUS44 KEWX 231133
TAFSAT
TAF
KSAT 231133Z 2312/2418 17012KT P6SM OVC012
     FM231600 18018G28KT P6SM SCT030 BKN250
     FM231900 17019G29KT P6SM SCT250
     FM240600 15016KT P6SM OVC015=

USA.gov is the U.S. government's official web portal to all federal, state and local government web resources and services.